Time;durP1;ratioP1;P1;durP2;ratioP2;P2;SDS_P1;SDS_P2;PMS_P1;PMS_P2;Temp;Humidity;BMP_temperature;BMP_pressure;BME280_temperature;BME280_humidity;BME280_pressure;Samples;Min_cycle;Max_cycle;Signal;HPM_P1;HPM_P2
2022/06/22 00:01:41;;;;;;;4.63;3.57;;;19.30;58.70;;;21.93;45.09;101324.03;5097693;28;20216;-62
2022/06/22 00:04:18;;;;;;;5.57;4.47;;;19.30;58.80;;;21.93;45.36;101324.03;5094845;28;20651;-62
2022/06/22 00:06:53;;;;;;;5.23;3.30;;;19.20;58.70;;;21.93;45.47;101332.06;5094882;28;20220;-61
2022/06/22 00:09:26;;;;;;;4.77;3.40;;;19.30;58.70;;;21.91;45.50;101336.84;5095603;28;20188;-62
2022/06/22 00:11:55;;;;;;;4.40;4.00;;;19.20;58.60;;;21.88;45.53;101340.81;5094847;28;20208;-62
2022/06/22 00:14:41;;;;;;;3.93;3.63;;;19.20;58.70;;;21.82;45.33;101343.59;5094721;28;20195;-61
2022/06/22 00:17:18;;;;;;;3.93;3.20;;;19.20;59.40;;;21.76;45.74;101339.16;5101807;28;20218;-62
2022/06/22 00:19:48;;;;;;;5.90;4.03;;;19.10;59.10;;;21.76;45.45;101347.19;5114934;28;20195;-62
2022/06/22 00:22:22;;;;;;;5.77;3.97;;;19.00;59.20;;;21.73;45.78;101350.34;5097824;28;20268;-62
2022/06/22 00:24:58;;;;;;;4.10;3.37;;;19.00;59.30;;;21.68;46.03;101352.91;5092636;28;20561;-62
2022/06/22 00:27:36;;;;;;;7.97;4.10;;;19.00;59.20;;;21.62;45.46;101348.47;5093504;28;20210;-62
2022/06/22 00:30:25;;;;;;;5.50;4.57;;;18.90;59.10;;;21.55;46.08;101353.94;5094230;28;20190;-63
2022/06/22 00:33:12;;;;;;;5.97;3.77;;;18.90;59.40;;;21.49;46.47;101350.31;5073872;28;20220;-63
2022/06/22 00:35:48;;;;;;;4.33;3.53;;;18.80;60.30;;;21.45;46.50;101354.50;5094530;28;20653;-62
2022/06/22 00:38:20;;;;;;;4.63;4.13;;;18.80;59.70;;;21.44;46.38;101357.44;5094526;28;20548;-62
2022/06/22 00:40:54;;;;;;;4.83;4.37;;;18.80;59.90;;;21.39;46.68;101347.41;5093867;28;20199;-62
2022/06/22 00:43:28;;;;;;;3.67;3.23;;;18.70;59.80;;;21.36;46.31;101358.56;5094177;28;20184;-62
2022/06/22 00:45:59;;;;;;;5.20;3.93;;;18.70;60.20;;;21.36;46.58;101358.56;5094137;28;20669;-63
2022/06/22 00:48:32;;;;;;;5.00;3.50;;;18.70;60.40;;;21.35;46.69;101364.97;5094067;28;20191;-62
2022/06/22 00:51:06;;;;;;;6.37;4.47;;;18.70;60.40;;;21.37;46.78;101372.78;5098224;28;21094;-63
2022/06/22 00:53:40;;;;;;;4.47;3.67;;;18.70;60.10;;;21.33;46.58;101366.25;5093958;28;20191;-62
2022/06/22 00:56:32;;;;;;;4.43;4.03;;;18.70;60.10;;;21.25;46.87;101348.63;5093849;28;20196;-62
2022/06/22 00:59:12;;;;;;;5.03;3.90;;;18.70;60.30;;;21.21;47.01;101347.47;5094092;28;20493;-62
2022/06/22 01:01:49;;;;;;;4.87;4.40;;;18.60;60.30;;;21.18;46.83;101344.44;5093433;28;20212;-62
2022/06/22 01:04:25;;;;;;;4.03;3.63;;;18.50;60.60;;;21.15;47.40;101351.06;5093427;28;20196;-62
2022/06/22 01:07:02;;;;;;;7.17;4.60;;;18.50;60.70;;;21.12;47.42;101354.19;5100298;28;20603;-62
2022/06/22 01:09:45;;;;;;;4.70;4.03;;;18.50;60.80;;;21.08;47.00;101352.22;5114076;28;20188;-61
2022/06/22 01:12:25;;;;;;;5.07;3.87;;;18.40;61.00;;;21.06;47.26;101355.09;5113541;28;20211;-62
2022/06/22 01:15:11;;;;;;;6.60;4.30;;;18.40;61.20;;;21.03;47.63;101355.56;5113851;28;20188;-62
2022/06/22 01:17:52;;;;;;;5.50;4.40;;;18.40;61.40;;;21.01;47.73;101362.16;5096992;28;20188;-62
2022/06/22 01:20:31;;;;;;;5.07;4.53;;;18.40;61.40;;;20.99;47.34;101353.56;5093337;28;20188;-62
2022/06/22 01:24:05;;;;;;;4.27;3.80;;;18.30;61.50;;;20.85;48.31;101358.25;5094441;28;20242;-61
2022/06/22 01:26:51;;;;;;;7.43;4.20;;;18.30;61.80;;;20.87;48.23;101350.84;5050935;28;20694;-61
2022/06/22 01:29:23;;;;;;;7.13;4.60;;;18.30;62.00;;;20.89;47.60;101348.75;5093416;28;20193;-61
2022/06/22 01:31:58;;;;;;;6.93;5.00;;;18.30;61.90;;;20.89;47.51;101348.75;5092671;28;20204;-62
2022/06/22 01:34:35;;;;;;;7.43;4.50;;;18.20;61.90;;;20.87;48.42;101348.16;5093237;28;20622;-62
2022/06/22 01:37:05;;;;;;;6.80;4.80;;;18.20;62.20;;;20.87;47.71;101342.81;5093295;28;20203;-62
2022/06/22 01:39:33;;;;;;;6.77;4.77;;;18.20;62.00;;;20.84;47.90;101343.25;5097154;28;20667;-61
2022/06/22 01:42:14;;;;;;;6.13;5.17;;;18.20;62.10;;;20.82;48.03;101342.66;5113084;28;20550;-62
2022/06/22 01:44:52;;;;;;;7.50;4.83;;;18.20;62.20;;;20.76;48.19;101332.84;5112415;28;20226;-62
2022/06/22 01:47:33;;;;;;;8.57;5.40;;;18.10;62.20;;;20.72;47.92;101337.03;5100379;28;20260;-62
2022/06/22 01:50:13;;;;;;;7.83;5.17;;;18.10;62.50;;;20.69;48.05;101337.47;5092968;28;20200;-61
2022/06/22 01:53:02;;;;;;;7.53;5.33;;;18.00;62.60;;;20.61;48.62;101319.88;5092551;28;20218;-62
2022/06/22 01:55:42;;;;;;;6.37;4.37;;;18.00;62.90;;;20.59;48.69;101318.47;5093081;28;20169;-62
2022/06/22 01:58:35;;;;;;;6.30;4.80;;;17.90;62.90;;;20.52;48.95;101317.75;5112269;28;20209;-62
2022/06/22 02:01:18;;;;;;;5.17;4.67;;;17.90;63.20;;;20.50;49.01;101319.81;5085902;28;20212;-60
2022/06/22 02:04:01;;;;;;;5.80;4.63;;;17.80;63.20;;;20.46;49.01;101315.97;5093208;28;20200;-60
2022/06/22 02:09:36;;;;;;;8.13;5.23;;;17.70;63.60;;;20.40;49.23;101323.03;5092975;28;20196;-60
2022/06/22 02:12:19;;;;;;;6.43;4.67;;;17.70;63.80;;;20.41;49.08;101313.16;5092628;28;20295;-62
2022/06/22 02:14:52;;;;;;;8.63;5.07;;;17.70;63.70;;;20.36;49.13;101321.03;5111165;28;20650;-62
2022/06/22 02:17:28;;;;;;;5.70;4.83;;;17.70;63.90;;;20.35;49.00;101314.06;5097364;28;20189;-60
2022/06/22 02:20:35;;;;;;;7.77;5.20;;;17.70;64.10;;;20.30;49.34;101321.94;5093250;28;20192;-62
2022/06/22 02:23:19;;;;;;;6.17;5.37;;;17.70;63.90;;;20.29;49.50;101314.94;5011498;28;20262;-62
2022/06/22 02:25:59;;;;;;;5.17;4.67;;;17.60;63.80;;;20.27;49.51;101323.19;5010639;28;20643;-62
2022/06/22 02:28:27;;;;;;;6.73;5.13;;;17.60;63.90;;;20.30;49.19;101320.06;5068621;28;20204;-62
2022/06/22 02:30:55;;;;;;;7.57;5.70;;;17.60;64.00;;;20.32;49.20;101327.88;5106616;28;20219;-62
2022/06/22 02:33:25;;;;;;;7.90;5.83;;;17.60;64.20;;;20.32;49.15;101325.19;5108474;28;20219;-62
2022/06/22 02:35:55;;;;;;;8.50;5.93;;;17.60;64.10;;;20.32;49.50;101326.03;5113515;28;20188;-62
2022/06/22 02:38:24;;;;;;;6.63;6.03;;;17.60;64.40;;;20.33;49.64;101324.97;5114433;28;20584;-60
2022/06/22 02:46:33;;;;;;;6.77;5.57;;;17.60;64.00;;;20.18;49.49;101308.47;5111465;28;20560;-62
2022/06/22 02:49:07;;;;;;;7.73;5.50;;;17.50;64.00;;;20.14;49.71;101307.28;5099712;28;20196;-63
2022/06/22 02:51:42;;;;;;;9.17;6.40;;;17.50;64.20;;;20.11;49.59;101297.84;5093952;28;20676;-63
2022/06/22 02:54:24;;;;;;;9.57;6.00;;;17.40;64.50;;;20.07;49.78;101317.22;5096363;28;20191;-62
2022/06/22 02:57:09;;;;;;;6.07;5.07;;;17.40;64.70;;;20.06;49.94;101311.06;5096452;28;20189;-62
2022/06/22 02:59:36;;;;;;;7.23;5.50;;;17.40;65.10;;;20.12;49.90;101309.34;5095000;28;20611;-63
2022/06/22 03:02:06;;;;;;;5.67;5.07;;;17.40;64.50;;;20.13;49.27;101306.44;5096767;28;20217;-63
2022/06/22 03:04:35;;;;;;;7.73;5.90;;;17.40;64.00;;;20.10;49.47;101306.09;5095622;28;20188;-62
2022/06/22 03:07:05;;;;;;;7.60;6.23;;;17.40;64.00;;;20.06;49.65;101319.06;5114707;28;20210;-63
2022/06/22 03:09:33;;;;;;;5.90;5.30;;;17.40;64.20;;;20.01;49.52;101320.78;5116014;28;20533;-62
2022/06/22 03:12:02;;;;;;;7.00;5.97;;;17.30;64.60;;;20.01;50.29;101321.63;5115649;28;20208;-62
2022/06/22 03:14:36;;;;;;;7.03;5.57;;;17.30;65.00;;;20.05;50.18;101322.78;5116208;28;20566;-62
2022/06/22 03:17:10;;;;;;;9.50;6.33;;;17.40;65.10;;;20.12;49.58;101320.03;5116205;28;20188;-62
2022/06/22 03:19:45;;;;;;;6.83;5.77;;;17.40;64.80;;;20.16;49.82;101300.66;5113363;28;20196;-61
2022/06/22 03:22:18;;;;;;;7.43;6.23;;;17.50;64.80;;;20.22;49.75;101307.84;5094061;28;20282;-61
2022/06/22 03:24:54;;;;;;;8.20;6.27;;;17.50;64.40;;;20.25;49.67;101302.00;5095434;28;20196;-62
2022/06/22 03:27:35;;;;;;;8.00;6.67;;;17.60;64.40;;;20.29;49.19;101304.25;5095403;28;20216;-61
2022/06/22 03:30:13;;;;;;;7.37;6.03;;;17.60;64.10;;;20.30;49.61;101293.31;5095518;28;20185;-62
2022/06/22 03:32:49;;;;;;;8.57;6.90;;;17.60;63.90;;;20.33;49.15;101289.38;5095086;28;20692;-61
2022/06/22 03:35:25;;;;;;;7.83;6.03;;;17.70;63.80;;;20.36;49.43;101292.44;5096366;28;20200;-60
2022/06/22 03:37:59;;;;;;;7.30;6.07;;;17.70;63.70;;;20.40;48.83;101295.47;5094851;28;20541;-61
2022/06/22 03:40:35;;;;;;;6.73;6.07;;;17.70;63.40;;;20.41;48.59;101307.81;5094913;28;20192;-61
2022/06/22 03:43:11;;;;;;;10.13;6.90;;;17.70;64.30;;;20.46;48.52;101307.94;5095016;28;20176;-61
2022/06/22 03:45:46;;;;;;;8.87;6.13;;;17.80;63.30;;;20.45;48.51;101304.44;5094919;28;20195;-62
2022/06/22 03:48:28;;;;;;;8.10;6.53;;;17.80;63.50;;;20.46;48.94;101303.44;5094984;28;20256;-61
2022/06/22 03:51:05;;;;;;;7.43;6.73;;;17.80;63.50;;;20.46;48.29;101310.63;5094606;28;20220;-61
2022/06/22 03:53:42;;;;;;;9.43;6.87;;;17.80;63.30;;;20.43;48.33;101305.72;5091541;28;20209;-62
2022/06/22 03:56:15;;;;;;;6.93;6.23;;;17.80;64.00;;;20.43;48.49;101311.06;5095145;28;20184;-61
2022/06/22 03:58:47;;;;;;;10.03;7.63;;;17.70;63.20;;;20.42;48.44;101317.47;5095120;28;20610;-63
2022/06/22 04:01:17;;;;;;;9.93;7.77;;;17.70;63.40;;;20.39;48.96;101315.25;5094558;28;20231;-61
2022/06/22 04:03:45;;;;;;;10.73;6.70;;;17.70;63.50;;;20.35;49.01;101319.41;5094483;28;20196;-63
2022/06/22 04:06:23;;;;;;;8.00;6.93;;;17.60;64.00;;;20.29;49.14;101321.13;5094889;28;20213;-62
2022/06/22 04:08:51;;;;;;;8.13;7.33;;;17.60;64.40;;;20.32;49.13;101325.19;5102557;28;20328;-60
2022/06/22 04:11:26;;;;;;;8.30;7.57;;;17.60;64.30;;;20.30;48.66;101332.63;5109520;28;20231;-61
2022/06/22 04:14:04;;;;;;;8.87;7.57;;;17.60;64.00;;;20.24;49.28;101329.00;5094528;28;20558;-61
2022/06/22 04:16:37;;;;;;;10.37;8.30;;;17.50;64.10;;;20.20;49.21;101341.16;5094441;28;20193;-62
2022/06/22 04:19:13;;;;;;;10.23;8.17;;;17.50;64.80;;;20.12;49.51;101347.59;5094505;28;20184;-62
2022/06/22 04:21:49;;;;;;;10.83;8.33;;;17.40;64.90;;;20.06;49.44;101343.13;5093842;28;20230;-61
2022/06/22 04:24:22;;;;;;;10.10;8.47;;;17.40;65.20;;;20.02;49.89;101341.94;5094081;28;20188;-63
2022/06/22 04:26:58;;;;;;;9.17;8.13;;;17.30;65.40;;;19.98;50.08;101348.78;5094711;28;20226;-61
2022/06/22 04:29:40;;;;;;;11.47;8.27;;;17.30;65.60;;;19.94;49.93;101349.44;5094376;28;20235;-60
2022/06/22 04:32:18;;;;;;;12.77;8.07;;;17.30;65.80;;;19.93;50.15;101340.59;5109181;28;20218;-61
2022/06/22 04:34:52;;;;;;;9.60;8.43;;;17.20;66.00;;;19.98;50.36;101330.06;5094071;28;20554;-62
2022/06/22 04:37:31;;;;;;;9.70;7.40;;;17.20;66.10;;;20.02;50.84;101320.56;5095651;28;20184;-61
2022/06/22 04:40:22;;;;;;;9.40;7.70;;;17.30;66.40;;;20.06;50.82;101319.06;5093909;28;20238;-60
2022/06/22 04:42:59;;;;;;;8.30;7.43;;;17.40;66.40;;;20.16;50.75;101321.22;5093941;28;20240;-61
2022/06/22 04:45:31;;;;;;;9.10;7.03;;;17.40;66.10;;;20.24;50.35;101319.13;5093857;28;20258;-63
2022/06/22 04:48:08;;;;;;;9.37;8.37;;;17.50;65.90;;;20.32;50.47;101322.53;5094005;28;20322;-63
2022/06/22 04:50:39;;;;;;;7.27;6.30;;;17.60;66.60;;;20.39;50.40;101326.75;5096320;28;20199;-63
2022/06/22 04:53:21;;;;;;;9.30;6.73;;;17.70;65.70;;;20.46;49.91;101315.97;5113881;28;20599;-62
2022/06/22 04:55:50;;;;;;;9.77;8.83;;;17.70;65.50;;;20.56;49.88;101317.06;5109054;28;20249;-62
2022/06/22 04:58:38;;;;;;;13.53;9.00;;;17.80;65.40;;;20.59;49.58;101313.13;5093709;28;20202;-62
2022/06/22 05:01:06;;;;;;;12.50;10.73;;;17.80;65.40;;;20.65;49.50;101314.91;5093126;28;20212;-61
2022/06/22 05:03:35;;;;;;;14.53;10.73;;;17.90;65.10;;;20.63;49.18;101314.31;5093612;28;20188;-62
2022/06/22 05:06:14;;;;;;;13.40;9.80;;;17.90;65.00;;;20.58;49.59;101314.19;5093670;28;20184;-63
2022/06/22 05:08:53;;;;;;;13.80;10.57;;;17.80;64.70;;;20.52;49.19;101312.38;5109944;28;20191;-67
2022/06/22 05:11:26;;;;;;;10.27;8.93;;;17.80;65.00;;;20.50;49.41;101311.81;5093838;28;20220;-61
2022/06/22 05:13:58;;;;;;;9.87;8.87;;;17.80;65.10;;;20.51;49.45;101316.13;5093120;28;20192;-63
2022/06/22 05:16:30;;;;;;;10.73;9.67;;;17.70;65.20;;;20.53;50.02;101314.03;5093468;28;20203;-63
2022/06/22 05:19:00;;;;;;;12.77;10.00;;;17.80;65.50;;;20.57;49.69;101312.53;5093641;28;20204;-60
2022/06/22 05:21:37;;;;;;;12.43;10.27;;;17.80;65.60;;;20.60;49.36;101317.44;5096444;28;20235;-62
2022/06/22 05:24:12;;;;;;;11.30;10.17;;;17.80;65.60;;;20.64;50.07;101307.91;5104703;28;20717;-63
2022/06/22 05:26:41;;;;;;;11.73;10.53;;;17.80;65.80;;;20.73;49.55;101306.53;5113743;28;20211;-63
2022/06/22 05:29:14;;;;;;;12.97;11.67;;;17.90;65.60;;;20.81;49.29;101314.25;5113219;28;20196;-61
2022/06/22 05:31:47;;;;;;;15.87;11.67;;;17.90;65.50;;;20.86;49.20;101306.38;5112754;28;20544;-62
2022/06/22 05:34:20;;;;;;;11.53;10.17;;;18.00;65.40;;;20.91;48.93;101314.53;5113113;28;20311;-62
2022/06/22 05:36:56;;;;;;;11.73;10.37;;;18.10;65.10;;;20.97;49.03;101307.47;5113544;28;20731;-63
2022/06/22 05:39:25;;;;;;;13.90;10.47;;;18.10;65.00;;;21.03;48.94;101317.25;5103742;28;20191;-64
2022/06/22 05:41:53;;;;;;;11.27;10.10;;;18.20;64.90;;;21.12;49.47;101306.00;5111958;28;20271;-63
2022/06/22 05:44:23;;;;;;;11.87;10.67;;;18.20;65.00;;;21.19;48.86;101301.38;5113235;28;20188;-61
2022/06/22 05:46:54;;;;;;;11.83;9.47;;;18.40;65.00;;;21.24;49.06;101304.16;5114132;28;20287;-60
2022/06/22 05:49:29;;;;;;;11.27;9.90;;;18.40;64.80;;;21.30;49.24;101313.16;5113009;28;20259;-61
2022/06/22 05:52:05;;;;;;;11.40;9.60;;;18.50;64.80;;;21.39;48.46;101317.94;5111451;28;20677;-63
2022/06/22 05:54:43;;;;;;;11.30;10.00;;;18.60;64.60;;;21.44;48.89;101315.34;5109159;28;20253;-61
2022/06/22 05:57:19;;;;;;;10.00;9.00;;;18.60;64.50;;;21.48;48.73;101321.91;5096669;28;20294;-62
2022/06/22 05:59:54;;;;;;;10.33;9.33;;;18.70;64.40;;;21.58;48.33;101332.06;5093080;28;20195;-63
2022/06/22 06:02:37;;;;;;;9.27;8.33;;;18.80;64.40;;;21.66;48.10;101330.88;5092302;28;20214;-61
2022/06/22 06:05:17;;;;;;;9.23;8.23;;;18.80;64.20;;;21.76;48.04;101337.28;5092853;28;20203;-63
2022/06/22 06:07:48;;;;;;;9.57;7.27;;;18.90;63.90;;;21.83;47.64;101337.16;5091247;28;20279;-63
2022/06/22 06:10:23;;;;;;;8.37;7.53;;;18.90;63.20;;;21.85;47.78;101343.13;5092541;28;20162;-62
2022/06/22 06:12:59;;;;;;;7.50;6.70;;;19.00;63.20;;;21.90;47.79;101359.34;5093574;28;20214;-62
2022/06/22 06:15:32;;;;;;;7.03;6.33;;;19.10;62.90;;;21.96;47.51;101355.75;5095192;28;20221;-62
2022/06/22 06:18:03;;;;;;;10.07;6.77;;;19.10;62.70;;;22.03;46.71;101361.78;5112819;28;20207;-63
2022/06/22 06:20:37;;;;;;;8.17;5.07;;;19.20;62.40;;;22.10;46.41;101359.81;5112486;28;20196;-60
2022/06/22 06:23:14;;;;;;;6.43;4.47;;;19.30;61.40;;;22.15;45.97;101360.75;5096856;28;20184;-62
2022/06/22 06:28:44;;;;;;;5.73;3.80;;;19.40;60.00;;;22.26;45.04;101361.75;5081397;28;20221;-62
2022/06/22 06:31:21;;;;;;;4.43;3.83;;;19.40;59.30;;;22.32;44.35;101366.19;5115014;28;20230;-61
2022/06/22 06:33:49;;;;;;;5.13;4.10;;;19.40;58.60;;;22.35;44.31;101360.34;5116949;28;20192;-63
2022/06/22 06:36:24;;;;;;;5.83;4.50;;;19.50;58.30;;;22.40;44.37;101357.75;5117639;28;20263;-63
2022/06/22 06:38:59;;;;;;;18.07;16.17;;;19.50;58.70;;;22.46;44.13;101353.31;5119473;28;20646;-62
2022/06/22 06:41:39;;;;;;;5.70;5.10;;;19.60;58.80;;;22.54;43.85;101351.06;5114292;28;20199;-61
2022/06/22 06:44:16;;;;;;;4.63;3.70;;;19.70;58.50;;;22.64;43.85;101359.38;5075173;28;20192;-63
2022/06/22 06:46:51;;;;;;;9.10;5.37;;;19.70;58.30;;;22.75;43.75;101341.56;5090112;28;20261;-62
2022/06/22 06:49:38;;;;;;;6.00;3.90;;;19.80;58.10;;;22.89;43.40;101345.63;5096218;28;20245;-63
2022/06/22 06:52:31;;;;;;;6.87;3.20;;;20.00;58.10;;;22.98;43.08;101343.34;5095368;28;20230;-60
2022/06/22 06:55:08;;;;;;;11.50;8.07;;;20.00;57.30;;;23.11;42.86;101340.34;5095841;28;20211;-62
2022/06/22 06:57:45;;;;;;;6.77;4.63;;;20.10;57.40;;;23.21;42.48;101337.84;5095822;28;20202;-61
2022/06/22 07:00:14;;;;;;;4.27;3.83;;;20.20;56.40;;;23.28;41.84;101335.81;5095806;28;20218;-61
2022/06/22 07:02:44;;;;;;;7.30;3.67;;;20.40;56.20;;;23.36;41.65;101340.81;5095750;28;20299;-62
2022/06/22 07:05:17;;;;;;;4.57;2.83;;;20.40;55.90;;;23.43;41.80;101336.09;5096057;28;20189;-62
2022/06/22 07:07:52;;;;;;;4.97;3.17;;;20.50;55.50;;;23.48;41.49;101333.50;5095457;28;20208;-61
2022/06/22 07:10:31;;;;;;;5.10;3.60;;;20.60;55.40;;;23.54;41.26;101332.50;5098606;28;20275;-62
2022/06/22 07:13:04;;;;;;;3.87;3.20;;;20.60;55.30;;;23.63;41.34;101332.94;5095651;28;20184;-63
2022/06/22 07:15:36;;;;;;;6.10;3.43;;;20.70;55.30;;;23.69;41.31;101335.44;5095379;28;20245;-63
2022/06/22 07:18:22;;;;;;;6.70;4.10;;;20.70;55.30;;;23.73;41.21;101336.56;5096653;28;20185;-63
2022/06/22 07:20:58;;;;;;;6.93;4.00;;;20.80;54.80;;;23.82;41.08;101334.28;5117114;28;20203;-60
2022/06/22 07:23:34;;;;;;;5.40;3.40;;;20.90;54.50;;;23.86;40.77;101324.66;5099265;28;20188;-62
2022/06/22 07:26:16;;;;;;;4.73;3.67;;;21.00;54.40;;;23.90;40.62;101329.28;5102676;28;20198;-62
2022/06/22 07:28:54;;;;;;;6.03;3.60;;;21.00;54.40;;;23.95;40.29;101334.75;5101467;28;20315;-62
2022/06/22 07:31:29;;;;;;;4.30;3.20;;;21.10;54.20;;;23.97;40.03;101338.00;5095577;28;20566;-61
2022/06/22 07:34:04;;;;;;;12.60;10.97;;;21.10;53.40;;;24.02;39.84;101339.94;5097072;28;20249;-62
2022/06/22 07:36:40;;;;;;;6.97;4.07;;;21.20;53.40;;;24.08;40.06;101337.09;5110740;28;20543;-63
2022/06/22 07:39:20;;;;;;;8.70;3.60;;;21.20;53.20;;;24.12;39.85;101340.94;5115888;28;20180;-62
2022/06/22 07:41:52;;;;;;;4.37;3.50;;;21.30;53.30;;;24.21;39.56;101344.00;5116599;27;20211;-63
2022/06/22 07:44:28;;;;;;;6.33;3.80;;;21.30;53.20;;;24.27;39.80;101340.28;5116623;28;20176;-62
2022/06/22 07:47:06;;;;;;;7.70;5.33;;;21.40;53.40;;;24.36;39.65;101341.50;5102745;28;20198;-63
2022/06/22 07:49:42;;;;;;;5.47;4.60;;;21.40;53.30;;;24.42;39.39;101339.66;5094603;28;20669;-63
2022/06/22 07:52:15;;;;;;;4.70;4.00;;;21.50;52.90;;;24.51;39.42;101343.56;5099260;28;20302;-63
2022/06/22 07:54:49;;;;;;;5.27;3.43;;;21.60;53.00;;;24.60;39.06;101337.50;5113083;28;20275;-63
2022/06/22 07:57:28;;;;;;;7.73;4.73;;;21.70;52.90;;;24.67;39.48;101339.97;5115261;28;20660;-62
2022/06/22 08:00:06;;;;;;;7.37;3.67;;;21.80;52.50;;;24.71;38.44;101336.53;5111332;27;20313;-63
2022/06/22 08:02:48;;;;;;;4.00;3.07;;;21.80;51.50;;;24.71;38.27;101336.53;5093602;28;20219;-63
2022/06/22 08:05:23;;;;;;;6.93;3.70;;;21.90;51.20;;;24.77;38.48;101334.75;5085348;28;20297;-61
2022/06/22 08:07:59;;;;;;;4.60;3.60;;;21.90;51.30;;;24.83;38.37;101337.22;5085717;28;20212;-63
2022/06/22 08:10:36;;;;;;;4.00;3.13;;;21.90;50.70;;;24.91;37.59;101337.84;5085857;28;20212;-64
2022/06/22 08:13:11;;;;;;;4.37;3.30;;;22.00;50.50;;;24.98;38.11;101333.88;5085560;28;20261;-63
2022/06/22 08:15:47;;;;;;;7.23;6.50;;;22.10;50.90;;;25.05;38.32;101339.88;5085542;28;20184;-64
2022/06/22 08:18:15;;;;;;;14.33;11.87;;;22.10;51.10;;;25.22;38.19;101345.13;5085696;28;20203;-63
2022/06/22 08:20:49;;;;;;;7.13;4.50;;;22.20;51.10;;;25.87;36.52;101331.34;5085836;28;20631;-63
2022/06/22 08:23:23;;;;;;;6.17;3.90;;;22.50;50.90;;;27.26;36.05;101339.41;5084166;28;20232;-61
2022/06/22 08:26:03;;;;;;;7.63;3.57;;;22.80;51.30;;;28.97;33.03;101335.38;5086824;28;20192;-63
2022/06/22 08:28:35;;;;;;;5.53;3.13;;;23.50;50.50;;;30.63;30.36;101350.84;5085144;28;20215;-63
2022/06/22 08:31:05;;;;;;;3.13;2.83;;;24.30;48.80;;;31.94;27.19;101351.44;5085609;28;20205;-65
2022/06/22 08:33:38;;;;;;;3.40;2.60;;;25.20;44.10;;;33.37;25.63;101346.13;5086195;28;20193;-63
2022/06/22 08:36:25;;;;;;;3.33;2.57;;;26.10;42.60;;;35.01;24.74;101347.44;5083777;28;20315;-64
2022/06/22 08:39:02;;;;;;;5.87;3.13;;;27.10;42.20;;;35.93;22.57;101350.31;5085412;28;21585;-61
2022/06/22 08:41:48;;;;;;;4.73;3.23;;;28.20;37.70;;;36.80;22.59;101351.41;5085010;28;20782;-63
2022/06/22 08:44:32;;;;;;;3.53;2.50;;;29.10;37.20;;;37.66;20.65;101361.59;5085879;28;20208;-61
2022/06/22 08:47:34;;;;;;;4.57;2.70;;;29.80;34.70;;;38.02;18.76;101358.91;5084503;28;20211;-61
2022/06/22 08:50:39;;;;;;;3.30;2.60;;;30.60;29.90;;;38.23;18.59;101361.50;5083385;28;20211;-62
2022/06/22 08:53:28;;;;;;;5.00;3.40;;;31.30;29.50;;;38.75;19.11;101356.09;5081539;28;20200;-64
2022/06/22 08:56:17;;;;;;;2.73;2.40;;;31.80;29.80;;;39.64;18.01;101349.94;5084205;28;20204;-64
2022/06/22 08:59:35;;;;;;;6.43;3.17;;;32.20;27.90;;;40.45;17.14;101357.44;5085060;28;20603;-64
2022/06/22 09:02:30;;;;;;;2.63;2.20;;;32.70;27.20;;;41.02;16.83;101342.84;5084453;28;20646;-64
2022/06/22 09:05:54;;;;;;;4.47;3.17;;;33.10;27.50;;;41.46;15.97;101345.28;5082076;28;20679;-64
2022/06/22 09:09:07;;;;;;;3.63;2.95;;;33.60;26.80;;;42.01;16.27;101347.38;5084133;28;20223;-62
2022/06/22 09:11:43;;;;;;;4.53;2.90;;;34.10;25.80;;;42.34;15.11;101341.94;5081459;28;20232;-63
2022/06/22 09:14:42;;;;;;;2.83;2.58;;;34.40;25.10;;;42.46;15.31;101341.72;5084839;28;20191;-62
2022/06/22 09:17:39;;;;;;;5.47;3.88;;;34.70;25.30;;;43.05;14.96;101342.88;5083680;28;20196;-63
2022/06/22 09:20:34;;;;;;;5.03;3.30;;;35.00;25.30;;;43.39;14.44;101347.19;5084539;28;20199;-65
2022/06/22 09:23:23;;;;;;;4.03;2.65;;;35.50;24.50;;;43.72;14.63;101344.34;5083786;28;20242;-64
2022/06/22 09:26:08;;;;;;;4.55;2.92;;;35.90;24.50;;;43.98;14.31;101339.78;5084857;28;20185;-63
2022/06/22 09:28:46;;;;;;;3.88;2.58;;;36.10;24.10;;;44.32;14.25;101347.53;5084338;28;20219;-62
2022/06/22 09:32:22;;;;;;;4.18;3.38;;;36.30;23.90;;;44.71;13.60;101356.09;5084049;28;20216;-64
2022/06/22 09:35:32;;;;;;;4.75;2.95;;;36.60;23.90;;;44.51;13.96;101357.59;5084242;28;20184;-64
2022/06/22 09:38:54;;;;;;;3.28;2.67;;;36.80;23.30;;;44.58;13.81;101357.63;5084476;28;20192;-62
2022/06/22 09:41:35;;;;;;;4.55;3.25;;;36.80;23.30;;;45.01;13.98;101364.94;5080212;28;20224;-61
2022/06/22 09:44:36;;;;;;;3.10;2.80;;;36.90;23.10;;;45.45;13.90;101349.94;5084254;28;20188;-61
2022/06/22 09:47:37;;;;;;;3.72;3.00;;;37.00;23.30;;;45.84;13.65;101352.75;5083426;28;20196;-63
2022/06/22 09:50:37;;;;;;;6.90;4.15;;;37.30;23.20;;;46.29;13.29;101361.00;5083189;28;20765;-59
2022/06/22 09:53:33;;;;;;;3.88;3.50;;;37.50;23.70;;;46.80;12.99;101352.09;5084496;28;20237;-62
2022/06/22 09:56:37;;;;;;;5.35;4.47;;;37.80;23.00;;;46.90;11.60;101356.03;5083725;28;20192;-62
2022/06/22 09:59:59;;;;;;;4.35;3.25;;;37.80;21.70;;;46.64;12.49;101356.53;5080468;28;20211;-63
2022/06/22 10:03:10;;;;;;;4.57;4.00;;;37.80;22.20;;;46.69;12.33;101353.34;5082541;28;20220;-63
2022/06/22 10:06:29;;;;;;;6.68;5.93;;;37.90;22.10;;;46.87;12.22;101352.06;5088521;28;20192;-63
2022/06/22 10:09:46;;;;;;;4.20;3.20;;;38.10;22.40;;;46.86;12.46;101356.03;5086494;28;20243;-61
2022/06/22 10:12:40;;;;;;;6.45;4.43;;;38.20;22.10;;;46.53;11.91;101352.97;5087223;28;20890;-61
2022/06/22 10:15:51;;;;;;;5.05;4.25;;;38.20;21.40;;;46.66;12.59;101351.34;5089833;28;20566;-63
2022/06/22 10:18:44;;;;;;;4.97;4.18;;;38.20;22.10;;;46.65;12.15;101344.97;5088293;28;20185;-62
2022/06/22 10:21:28;;;;;;;3.90;3.60;;;38.20;21.50;;;46.27;11.98;101341.13;5086553;28;20220;-64
2022/06/22 10:24:18;;;;;;;4.18;3.28;;;38.20;21.30;;;45.68;12.50;101347.56;5085926;28;20208;-61
2022/06/22 10:27:17;;;;;;;3.90;3.20;;;38.10;20.90;;;45.44;12.23;101353.91;5087304;28;20200;-62
2022/06/22 10:30:16;;;;;;;3.15;2.85;;;38.10;21.30;;;45.49;12.62;101350.72;5087367;28;20215;-63
2022/06/22 10:33:31;;;;;;;5.82;3.40;;;38.00;21.40;;;44.82;11.88;101345.00;5086341;28;20292;-63
2022/06/22 10:36:47;;;;;;;3.80;2.97;;;37.90;20.50;;;44.61;13.09;101353.25;5087576;28;20200;-64
2022/06/22 10:39:52;;;;;;;4.95;3.25;;;37.70;21.20;;;45.17;12.99;101355.44;5086871;28;20220;-62
2022/06/22 10:45:43;;;;;;;4.75;4.35;;;37.60;21.70;;;44.81;12.64;101351.75;5086347;28;20184;-61
2022/06/22 10:49:08;;;;;;;4.00;3.60;;;37.60;21.10;;;43.12;13.59;101359.59;5087695;28;20218;-63
2022/06/22 10:52:22;;;;;;;5.20;4.60;;;37.40;21.00;;;41.32;15.15;101348.56;5052672;28;20224;-64
2022/06/22 10:55:39;;;;;;;5.15;3.90;;;36.80;21.40;;;39.86;16.53;101346.56;5085770;28;20207;-62
2022/06/22 10:58:37;;;;;;;4.75;3.80;;;35.90;22.50;;;39.26;17.19;101346.94;5085493;28;20192;-62
2022/06/22 11:01:39;;;;;;;4.88;4.30;;;35.10;23.40;;;38.87;17.12;101342.28;5085903;28;20710;-62
2022/06/22 11:05:03;;;;;;;5.95;3.67;;;34.40;23.80;;;38.04;17.39;101337.34;5085770;28;20196;-62
2022/06/22 11:08:22;;;;;;;5.47;3.10;;;33.80;24.20;;;37.13;18.08;101335.78;5023486;28;20198;-63
2022/06/22 11:11:18;;;;;;;5.35;4.68;;;33.20;24.50;;;36.75;19.23;101331.59;5086402;28;20213;-62
2022/06/22 11:14:46;;;;;;;6.05;4.88;;;32.80;25.60;;;37.38;18.70;101331.19;5085936;28;20571;-62
2022/06/22 11:17:35;;;;;;;9.63;5.55;;;32.40;26.60;;;38.34;18.24;101333.22;5038319;28;20207;-65
2022/06/22 11:20:30;;;;;;;7.10;5.55;;;32.30;26.80;;;38.37;18.06;101328.97;5085963;28;20212;-61
2022/06/22 11:23:03;;;;;;;4.85;3.75;;;32.50;26.80;;;37.78;18.16;101329.41;5086926;28;20184;-62
2022/06/22 11:32:45;;;;;;;4.67;3.23;;;31.70;27.10;;;34.92;20.71;101327.47;5085394;28;20219;-63